createdAt,value
2019-04-30T00:02:35.660Z,10.13
2019-04-30T00:04:58.500Z,10.11
2019-04-30T00:07:24.939Z,10.01
2019-04-30T00:09:53.999Z,9.97
2019-04-30T00:12:20.566Z,9.85
2019-04-30T00:14:46.813Z,9.96
2019-04-30T00:17:15.939Z,10.07
2019-04-30T00:19:41.297Z,10.00
2019-04-30T00:22:07.614Z,9.99
2019-04-30T00:24:35.454Z,9.96
2019-04-30T00:27:01.985Z,9.92
2019-04-30T00:29:31.004Z,9.84
2019-04-30T00:32:04.132Z,9.78
2019-04-30T00:34:25.558Z,9.81
2019-04-30T00:36:51.632Z,9.84
2019-04-30T00:39:17.763Z,9.87
2019-04-30T00:41:47.403Z,9.88
2019-04-30T00:44:12.287Z,9.86
2019-04-30T00:46:38.601Z,9.92
2019-04-30T00:49:09.856Z,9.79
2019-04-30T00:51:33.100Z,9.90
2019-04-30T00:53:59.313Z,9.88
2019-04-30T00:56:28.169Z,9.91
2019-04-30T00:58:57.470Z,9.92
2019-04-30T01:01:25.288Z,9.95
2019-04-30T01:04:10.079Z,9.87
2019-04-30T01:06:37.175Z,9.95
2019-04-30T01:09:05.445Z,9.94
2019-04-30T01:11:35.447Z,9.89
2019-04-30T01:14:01.464Z,9.72
2019-04-30T01:16:30.151Z,9.63
2019-04-30T01:18:55.891Z,9.62
2019-04-30T01:21:22.225Z,9.60
2019-04-30T01:23:54.552Z,9.49
2019-04-30T01:26:18.749Z,9.41
2019-04-30T01:28:45.333Z,9.52
2019-04-30T01:31:11.703Z,9.38
2019-04-30T01:33:39.002Z,9.28
2019-04-30T01:36:09.697Z,9.26
2019-04-30T01:38:33.722Z,9.18
2019-04-30T01:41:00.064Z,9.21
2019-04-30T01:43:31.769Z,9.06
2019-04-30T01:45:54.389Z,9.10
2019-04-30T01:48:20.674Z,9.06
2019-04-30T01:50:48.687Z,8.97
2019-04-30T01:53:15.194Z,8.87
2019-04-30T01:55:52.114Z,8.84
2019-04-30T01:58:20.231Z,8.76
2019-04-30T02:00:49.298Z,8.76
2019-04-30T02:03:15.883Z,8.70
2019-04-30T02:05:42.167Z,8.63
2019-04-30T02:08:08.484Z,8.56
2019-04-30T02:10:34.729Z,8.59
2019-04-30T02:13:00.928Z,8.64
2019-04-30T02:15:29.022Z,8.53
2019-04-30T02:17:55.059Z,8.61
2019-04-30T02:20:21.294Z,8.62
2019-04-30T02:22:48.644Z,8.74
2019-04-30T02:25:15.063Z,8.77
2019-04-30T02:27:41.252Z,8.78
2019-04-30T02:30:10.781Z,8.75
2019-04-30T02:32:35.814Z,8.75
2019-04-30T02:35:06.120Z,8.78
2019-04-30T02:37:34.177Z,8.76
2019-04-30T02:40:01.008Z,8.78
2019-04-30T02:42:29.702Z,8.73
2019-04-30T02:44:56.314Z,8.74
2019-04-30T02:47:23.375Z,8.68
2019-04-30T02:49:53.403Z,8.60
2019-04-30T02:52:21.766Z,8.60
2019-04-30T02:54:50.891Z,8.58
2019-04-30T02:57:16.983Z,8.56
2019-04-30T03:00:01.907Z,8.56
2019-04-30T03:02:30.467Z,8.38
2019-04-30T03:04:56.776Z,8.45
2019-04-30T03:07:22.895Z,8.41
2019-04-30T03:09:49.922Z,8.34
2019-04-30T03:12:16.206Z,8.43
2019-04-30T03:14:42.400Z,8.43
2019-04-30T03:17:20.891Z,8.31
2019-04-30T03:19:55.231Z,8.20
2019-04-30T03:22:23.433Z,8.19
2019-04-30T03:24:50.251Z,8.13
2019-04-30T03:27:16.538Z,8.21
2019-04-30T03:29:42.671Z,8.24
2019-04-30T03:32:13.647Z,8.41
2019-04-30T03:34:41.381Z,8.48
2019-04-30T03:37:05.159Z,8.53
2019-04-30T03:39:33.844Z,8.53
2019-04-30T03:41:59.786Z,8.62
2019-04-30T03:44:26.256Z,8.58
2019-04-30T03:46:52.468Z,8.63
2019-04-30T03:49:20.255Z,8.59
2019-04-30T03:51:46.599Z,8.49
2019-04-30T03:54:12.952Z,8.42
2019-04-30T03:56:40.514Z,8.46
2019-04-30T03:59:10.093Z,8.50
2019-04-30T04:01:39.749Z,8.36
2019-04-30T04:04:20.081Z,8.39
2019-04-30T04:07:00.640Z,8.47
2019-04-30T04:09:31.659Z,8.52
2019-04-30T04:12:00.026Z,8.55
2019-04-30T04:14:26.219Z,8.55
2019-04-30T04:16:52.339Z,8.53
2019-04-30T04:19:19.667Z,8.35
2019-04-30T04:21:45.917Z,8.36
2019-04-30T04:24:12.062Z,8.33
2019-04-30T04:26:43.315Z,8.27
2019-04-30T04:29:12.032Z,8.23
2019-04-30T04:31:34.561Z,8.28
2019-04-30T04:34:00.926Z,8.22
2019-04-30T04:36:29.947Z,8.34
2019-04-30T04:38:55.368Z,8.32
2019-04-30T04:41:21.584Z,8.30
2019-04-30T04:43:50.236Z,8.28
2019-04-30T04:46:15.934Z,8.18
2019-04-30T04:48:42.227Z,8.22
2019-04-30T04:51:14.582Z,8.19
2019-04-30T04:53:36.555Z,8.19
2019-04-30T04:56:02.780Z,8.30
2019-04-30T04:58:30.313Z,8.24
2019-04-30T05:00:59.119Z,8.25
2019-04-30T05:03:26.718Z,8.37
2019-04-30T05:05:53.064Z,8.46
2019-04-30T05:08:19.246Z,8.53
2019-04-30T05:10:45.465Z,8.55
2019-04-30T05:13:11.651Z,8.59
2019-04-30T05:15:39.038Z,8.64
2019-04-30T05:18:05.284Z,8.65
2019-04-30T05:20:31.525Z,8.79
2019-04-30T05:22:58.506Z,8.75
2019-04-30T05:25:24.824Z,8.80
2019-04-30T05:27:51.131Z,8.74
2019-04-30T05:30:19.397Z,8.89
2019-04-30T05:32:45.810Z,8.93
2019-04-30T05:35:12.108Z,8.78
2019-04-30T05:37:38.586Z,8.86
2019-04-30T05:40:05.928Z,8.90
2019-04-30T05:42:32.084Z,8.69
2019-04-30T05:44:59.352Z,8.80
2019-04-30T05:47:25.738Z,8.67
2019-04-30T05:49:51.871Z,8.60
2019-04-30T05:52:19.925Z,8.56
2019-04-30T05:54:46.162Z,8.63
2019-04-30T05:57:12.441Z,8.74
2019-04-30T05:59:38.869Z,8.72
2019-04-30T06:02:05.282Z,8.73
2019-04-30T06:04:31.497Z,8.72
2019-04-30T06:06:58.708Z,8.78
2019-04-30T06:09:33.655Z,8.79
2019-04-30T06:12:12.186Z,8.75
2019-04-30T06:14:52.599Z,8.68
2019-04-30T06:17:20.937Z,8.67
2019-04-30T06:19:49.125Z,8.67
2019-04-30T06:22:15.838Z,8.70
2019-04-30T06:24:42.137Z,8.73
2019-04-30T06:27:10.777Z,8.78
2019-04-30T06:29:39.075Z,8.80
2019-04-30T06:32:06.335Z,8.76
2019-04-30T06:34:32.898Z,8.85
2019-04-30T06:36:59.593Z,8.70
2019-04-30T06:39:26.034Z,8.64
2019-04-30T06:42:04.266Z,8.74
2019-04-30T06:44:34.758Z,8.89
2019-04-30T06:46:51.458Z,8.93
2019-04-30T06:49:19.475Z,8.83
2019-04-30T06:51:46.111Z,8.96
2019-04-30T06:54:12.445Z,9.16
2019-04-30T06:56:38.807Z,9.19
2019-04-30T06:59:05.156Z,9.26
2019-04-30T07:01:31.380Z,9.26
2019-04-30T07:04:00.809Z,9.27
2019-04-30T07:06:29.574Z,9.33
2019-04-30T07:09:10.835Z,9.43
2019-04-30T07:11:39.257Z,9.30
2019-04-30T07:14:05.781Z,9.15
2019-04-30T07:16:32.503Z,8.97
2019-04-30T07:18:58.756Z,9.04
2019-04-30T07:21:25.080Z,9.14
2019-04-30T07:23:51.494Z,9.23
2019-04-30T07:26:19.781Z,9.30
2019-04-30T07:28:51.828Z,9.47
2019-04-30T07:31:14.755Z,9.49
2019-04-30T07:33:41.257Z,9.71
2019-04-30T07:36:09.552Z,9.85
2019-04-30T07:38:42.133Z,9.93
2019-04-30T07:41:03.936Z,9.87
2019-04-30T07:43:30.264Z,9.97
2019-04-30T07:45:56.464Z,10.03
2019-04-30T07:48:26.393Z,9.80
2019-04-30T07:50:52.111Z,10.04
2019-04-30T07:53:18.867Z,9.98
2019-04-30T07:55:45.135Z,10.10
2019-04-30T07:58:11.454Z,10.24
2019-04-30T08:00:40.343Z,10.46
2019-04-30T08:03:10.427Z,10.62
2019-04-30T08:05:46.642Z,11.11
2019-04-30T08:08:21.203Z,11.68
2019-04-30T08:10:41.100Z,11.91
2019-04-30T08:13:13.931Z,12.39
2019-04-30T08:15:35.558Z,12.09
2019-04-30T08:18:05.727Z,13.23
2019-04-30T08:20:30.184Z,12.91
2019-04-30T08:22:56.421Z,12.91
2019-04-30T08:25:22.637Z,12.29
2019-04-30T08:27:49.378Z,12.29
2019-04-30T08:30:23.752Z,12.85
2019-04-30T08:32:43.889Z,13.04
2019-04-30T08:35:10.450Z,13.41
2019-04-30T08:37:38.569Z,13.91
2019-04-30T08:40:05.543Z,13.67
2019-04-30T08:42:34.617Z,13.81
2019-04-30T08:44:59.975Z,13.56
2019-04-30T08:47:26.206Z,14.41
2019-04-30T08:49:52.501Z,13.71
2019-04-30T08:52:19.578Z,13.56
2019-04-30T08:54:46.178Z,13.44
2019-04-30T08:57:12.416Z,14.39
2019-04-30T08:59:39.451Z,14.21
2019-04-30T09:02:13.632Z,14.00
2019-04-30T09:04:34.134Z,12.85
2019-04-30T09:07:00.308Z,13.93
2019-04-30T09:09:26.543Z,13.71
2019-04-30T09:11:55.597Z,13.73
2019-04-30T09:14:20.727Z,14.45
2019-04-30T09:16:47.068Z,14.58
2019-04-30T09:19:15.315Z,15.19
2019-04-30T09:21:41.536Z,14.52
2019-04-30T09:24:09.541Z,14.84
2019-04-30T09:26:36.821Z,15.10
2019-04-30T09:29:03.025Z,14.90
2019-04-30T09:31:29.707Z,15.47
2019-04-30T09:33:58.052Z,16.37
2019-04-30T09:36:24.086Z,16.17
2019-04-30T09:38:50.316Z,15.99
2019-04-30T09:41:16.390Z,15.64
2019-04-30T09:43:42.615Z,15.78
2019-04-30T09:46:18.733Z,15.73
2019-04-30T09:48:38.617Z,16.11
2019-04-30T09:51:05.525Z,16.24
2019-04-30T09:53:32.169Z,16.01
2019-04-30T09:55:59.617Z,15.87
2019-04-30T09:58:26.251Z,15.64
2019-04-30T10:00:52.601Z,16.05
2019-04-30T10:03:20.140Z,16.29
2019-04-30T10:05:48.967Z,16.58
2019-04-30T10:08:15.399Z,16.69
2019-04-30T10:10:43.523Z,15.95
2019-04-30T10:13:09.855Z,16.25
2019-04-30T10:15:50.016Z,15.99
2019-04-30T10:18:15.139Z,15.82
2019-04-30T10:20:42.645Z,16.49
2019-04-30T10:23:09.553Z,15.95
2019-04-30T10:25:36.598Z,16.06
2019-04-30T10:28:03.639Z,16.01
2019-04-30T10:30:34.448Z,15.95
2019-04-30T10:33:00.702Z,16.03
2019-04-30T10:35:28.552Z,16.04
2019-04-30T10:37:54.977Z,16.19
2019-04-30T10:40:21.167Z,15.32
2019-04-30T10:42:48.882Z,15.97
2019-04-30T10:45:15.691Z,15.61
2019-04-30T10:47:41.955Z,16.10
2019-04-30T10:50:09.889Z,16.02
2019-04-30T10:52:36.371Z,15.20
2019-04-30T10:55:04.729Z,15.35
2019-04-30T10:57:31.092Z,14.74
2019-04-30T10:59:58.696Z,14.97
2019-04-30T11:02:25.186Z,15.21
2019-04-30T11:04:51.379Z,15.38
2019-04-30T11:07:18.612Z,15.67
2019-04-30T11:09:45.081Z,15.96
2019-04-30T11:12:12.317Z,16.11
2019-04-30T11:14:38.486Z,15.93
2019-04-30T11:17:05.132Z,16.10
2019-04-30T11:19:31.828Z,16.44
2019-04-30T11:21:58.346Z,16.43
2019-04-30T11:24:35.934Z,16.64
2019-04-30T11:26:54.513Z,16.75
2019-04-30T11:29:23.050Z,16.87
2019-04-30T11:31:51.431Z,17.51
2019-04-30T11:34:17.872Z,17.54
2019-04-30T11:36:44.185Z,18.03
2019-04-30T11:39:12.936Z,17.42
2019-04-30T11:41:39.596Z,17.78
2019-04-30T11:44:06.003Z,17.35
2019-04-30T11:46:59.694Z,16.92
2019-04-30T11:49:27.289Z,17.75
2019-04-30T11:51:53.718Z,18.41
2019-04-30T11:54:20.835Z,18.71
2019-04-30T11:56:50.241Z,19.31
2019-04-30T11:59:15.363Z,19.28
2019-04-30T12:01:41.707Z,19.86
2019-04-30T12:04:09.331Z,19.45
2019-04-30T12:06:35.821Z,19.59
2019-04-30T12:09:15.240Z,19.09
2019-04-30T12:11:45.686Z,18.95
2019-04-30T12:14:12.031Z,19.69
2019-04-30T12:16:39.557Z,20.32
2019-04-30T12:19:06.162Z,20.23
2019-04-30T12:21:32.494Z,20.80
2019-04-30T12:23:58.759Z,21.21
2019-04-30T12:26:24.894Z,20.56
2019-04-30T12:28:51.141Z,19.98
2019-04-30T12:31:18.711Z,19.88
2019-04-30T12:33:45.041Z,19.67
2019-04-30T12:36:11.289Z,19.91
2019-04-30T12:38:37.638Z,20.69
2019-04-30T12:41:04.058Z,20.90
2019-04-30T12:43:30.267Z,20.90
2019-04-30T12:46:04.841Z,19.79
2019-04-30T12:48:39.589Z,20.04
2019-04-30T12:51:23.371Z,21.45
2019-04-30T12:54:00.742Z,21.16
2019-04-30T12:56:31.977Z,20.72
2019-04-30T12:58:58.233Z,21.08
2019-04-30T13:01:24.549Z,20.54
2019-04-30T13:03:58.668Z,21.60
2019-04-30T13:06:20.420Z,21.34
2019-04-30T13:08:49.228Z,20.33
2019-04-30T13:11:15.424Z,21.02
2019-04-30T13:13:43.925Z,21.39
2019-04-30T13:16:10.647Z,21.75
2019-04-30T13:18:36.781Z,21.53
2019-04-30T13:21:03.339Z,21.46
2019-04-30T13:23:29.827Z,21.86
2019-04-30T13:25:56.018Z,22.00
2019-04-30T13:28:24.143Z,21.77
2019-04-30T13:30:50.504Z,21.81
2019-04-30T13:33:28.855Z,21.84
2019-04-30T13:35:55.244Z,21.48
2019-04-30T13:38:26.085Z,21.79
2019-04-30T13:40:58.812Z,21.13
2019-04-30T13:43:36.037Z,20.47
2019-04-30T13:46:02.571Z,19.86
2019-04-30T13:48:28.642Z,19.66
2019-04-30T13:50:55.751Z,19.75
2019-04-30T13:53:22.081Z,19.66
2019-04-30T13:55:48.903Z,19.14
2019-04-30T13:58:15.203Z,19.10
2019-04-30T14:00:42.304Z,18.96
2019-04-30T14:03:19.319Z,18.86
2019-04-30T14:05:45.576Z,18.64
2019-04-30T14:08:22.639Z,18.73
2019-04-30T14:10:49.718Z,18.86
2019-04-30T14:13:16.179Z,18.86
2019-04-30T14:15:43.939Z,18.75
2019-04-30T14:18:10.358Z,18.88
2019-04-30T14:20:36.725Z,18.96
2019-04-30T14:23:03.346Z,18.97
2019-04-30T14:25:29.980Z,18.57
2019-04-30T14:27:56.279Z,18.41
2019-04-30T14:30:22.718Z,18.54
2019-04-30T14:32:50.726Z,18.64
2019-04-30T14:35:18.675Z,18.64
2019-04-30T14:37:45.024Z,18.67
2019-04-30T14:40:13.209Z,18.69
2019-04-30T14:42:42.619Z,18.70
2019-04-30T14:45:18.528Z,18.64
2019-04-30T14:47:50.816Z,18.70
2019-04-30T14:50:19.736Z,18.70
2019-04-30T14:53:03.111Z,18.78
2019-04-30T14:55:31.350Z,18.71
2019-04-30T14:57:59.563Z,18.85
2019-04-30T15:00:38.433Z,19.05
2019-04-30T15:03:15.615Z,18.97
2019-04-30T15:05:48.455Z,19.15
2019-04-30T15:08:10.064Z,19.39
2019-04-30T15:10:36.506Z,19.49
2019-04-30T15:13:02.830Z,19.51
2019-04-30T15:15:29.297Z,19.36
2019-04-30T15:17:56.567Z,19.22
2019-04-30T15:20:22.860Z,18.93
2019-04-30T15:22:58.724Z,18.91
2019-04-30T15:25:25.052Z,18.88
2019-04-30T15:27:51.409Z,19.08
2019-04-30T15:30:21.565Z,19.13
2019-04-30T15:32:49.544Z,19.10
2019-04-30T15:35:15.808Z,19.04
2019-04-30T15:37:44.086Z,19.02
2019-04-30T15:40:10.500Z,18.65
2019-04-30T15:42:38.698Z,18.52
2019-04-30T15:45:05.591Z,18.46
2019-04-30T15:47:32.287Z,18.48
2019-04-30T15:49:59.671Z,18.73
2019-04-30T15:52:28.764Z,19.02
2019-04-30T15:54:54.750Z,18.87
2019-04-30T15:57:20.979Z,18.75
2019-04-30T15:59:47.193Z,18.54
2019-04-30T16:02:15.409Z,18.38
2019-04-30T16:04:59.865Z,18.08
2019-04-30T16:07:26.345Z,17.92
2019-04-30T16:10:06.325Z,18.10
2019-04-30T16:12:34.581Z,17.94
2019-04-30T16:15:00.687Z,17.88
2019-04-30T16:17:29.035Z,17.62
2019-04-30T16:19:55.278Z,17.73
2019-04-30T16:22:21.657Z,17.70
2019-04-30T16:24:49.506Z,17.86
2019-04-30T16:27:15.998Z,17.92
2019-04-30T16:29:42.313Z,18.08
2019-04-30T16:32:09.275Z,18.10
2019-04-30T16:34:35.864Z,18.02
2019-04-30T16:37:02.232Z,18.13
2019-04-30T16:39:28.897Z,18.29
2019-04-30T16:41:55.276Z,17.98
2019-04-30T16:44:22.625Z,17.77
2019-04-30T16:46:49.916Z,17.47
2019-04-30T16:49:16.432Z,17.43
2019-04-30T16:51:42.660Z,17.26
2019-04-30T16:54:09.054Z,17.37
2019-04-30T16:56:35.364Z,17.47
2019-04-30T16:59:06.161Z,17.48
2019-04-30T17:01:33.841Z,17.27
2019-04-30T17:04:20.220Z,17.35
2019-04-30T17:07:03.748Z,17.47
2019-04-30T17:09:43.917Z,17.37
2019-04-30T17:12:12.156Z,17.25
2019-04-30T17:14:43.099Z,17.37
2019-04-30T17:17:09.668Z,17.43
2019-04-30T17:19:36.061Z,17.30
2019-04-30T17:22:02.476Z,17.31
2019-04-30T17:24:30.246Z,17.30
2019-04-30T17:26:59.254Z,17.30
2019-04-30T17:29:25.618Z,17.33
2019-04-30T17:31:53.179Z,17.43
2019-04-30T17:34:19.500Z,17.44
2019-04-30T17:36:45.726Z,17.52
2019-04-30T17:39:16.593Z,17.46
2019-04-30T17:41:42.926Z,17.52
2019-04-30T17:44:09.400Z,17.40
2019-04-30T17:46:38.728Z,17.35
2019-04-30T17:49:05.075Z,17.38
2019-04-30T17:51:31.401Z,17.31
2019-04-30T17:54:14.454Z,17.33
2019-04-30T17:56:42.299Z,17.10
2019-04-30T17:59:08.668Z,17.02
2019-04-30T18:01:35.726Z,16.94
2019-04-30T18:04:01.990Z,16.80
2019-04-30T18:06:28.331Z,16.79
2019-04-30T18:08:54.848Z,16.71
2019-04-30T18:11:22.288Z,16.73
2019-04-30T18:13:50.665Z,16.50
2019-04-30T18:16:18.714Z,16.46
2019-04-30T18:18:49.066Z,16.49
2019-04-30T18:21:18.995Z,16.27
2019-04-30T18:23:53.351Z,16.12
2019-04-30T18:26:19.577Z,16.08
2019-04-30T18:28:45.851Z,16.04
2019-04-30T18:31:12.215Z,15.94
2019-04-30T18:33:38.807Z,15.80
2019-04-30T18:36:05.228Z,15.79
2019-04-30T18:38:31.602Z,15.49
2019-04-30T18:40:59.490Z,15.36
2019-04-30T18:43:25.848Z,15.06
2019-04-30T18:45:52.167Z,14.90
2019-04-30T18:48:19.545Z,14.86
2019-04-30T18:50:45.807Z,14.73
2019-04-30T18:53:15.116Z,14.73
2019-04-30T18:55:41.377Z,14.73
2019-04-30T18:58:08.792Z,14.55
2019-04-30T19:00:39.393Z,14.46
2019-04-30T19:03:05.472Z,14.25
2019-04-30T19:05:31.717Z,14.11
2019-04-30T19:08:09.802Z,14.12
2019-04-30T19:10:43.912Z,13.95
2019-04-30T19:13:29.851Z,14.16
2019-04-30T19:16:22.093Z,14.20
2019-04-30T19:18:50.805Z,14.12
2019-04-30T19:21:17.157Z,14.09
2019-04-30T19:23:43.658Z,13.90
2019-04-30T19:26:09.920Z,13.87
2019-04-30T19:28:36.203Z,13.73
2019-04-30T19:31:02.677Z,13.80
2019-04-30T19:33:31.038Z,13.77
2019-04-30T19:35:58.629Z,13.69
2019-04-30T19:38:26.172Z,13.87
2019-04-30T19:40:52.445Z,13.81
2019-04-30T19:43:18.781Z,13.99
2019-04-30T19:45:45.006Z,14.05
2019-04-30T19:48:11.476Z,14.11
2019-04-30T19:50:37.816Z,14.04
2019-04-30T19:53:04.158Z,14.07
2019-04-30T19:55:30.870Z,14.05
2019-04-30T19:57:59.697Z,14.03
2019-04-30T20:00:25.581Z,14.01
2019-04-30T20:02:52.289Z,13.94
2019-04-30T20:05:19.391Z,13.94
2019-04-30T20:07:45.837Z,13.87
2019-04-30T20:10:12.238Z,13.80
2019-04-30T20:12:38.929Z,13.61
2019-04-30T20:15:16.553Z,12.85
2019-04-30T20:17:33.897Z,12.70
2019-04-30T20:20:00.097Z,12.43
2019-04-30T20:22:26.308Z,12.75
2019-04-30T20:24:52.679Z,12.85
2019-04-30T20:27:19.916Z,12.86
2019-04-30T20:29:46.428Z,12.70
2019-04-30T20:32:12.892Z,12.44
2019-04-30T20:34:39.288Z,12.21
2019-04-30T20:37:05.660Z,12.11
2019-04-30T20:39:42.819Z,11.96
2019-04-30T20:42:09.060Z,12.14
2019-04-30T20:44:35.275Z,12.23
2019-04-30T20:47:01.608Z,12.36
2019-04-30T20:49:29.135Z,12.29
2019-04-30T20:51:56.144Z,12.40
2019-04-30T20:54:22.650Z,12.52
2019-04-30T20:56:51.034Z,12.50
2019-04-30T20:59:18.903Z,12.41
2019-04-30T21:01:45.283Z,12.48
2019-04-30T21:04:11.621Z,12.50
2019-04-30T21:06:39.566Z,12.42
2019-04-30T21:09:05.932Z,12.36
2019-04-30T21:11:32.449Z,12.22
2019-04-30T21:13:59.147Z,11.63
2019-04-30T21:16:25.571Z,11.30
2019-04-30T21:18:51.767Z,11.13
2019-04-30T21:21:18.867Z,11.02
2019-04-30T21:23:46.235Z,11.20
2019-04-30T21:26:12.597Z,11.28
2019-04-30T21:28:39.351Z,11.08
2019-04-30T21:31:24.431Z,10.94
2019-04-30T21:33:52.431Z,11.19
2019-04-30T21:36:20.583Z,11.35
2019-04-30T21:38:48.920Z,11.33
2019-04-30T21:41:15.060Z,11.49
2019-04-30T21:43:41.409Z,11.55
2019-04-30T21:46:09.392Z,11.62
2019-04-30T21:48:38.809Z,11.52
2019-04-30T21:51:04.987Z,11.41
2019-04-30T21:53:31.424Z,11.14
2019-04-30T21:55:57.659Z,11.23
2019-04-30T21:58:23.848Z,11.29
2019-04-30T22:01:07.776Z,11.26
2019-04-30T22:03:35.055Z,11.35
2019-04-30T22:06:01.412Z,11.41
2019-04-30T22:08:28.789Z,11.45
2019-04-30T22:10:55.167Z,11.50
2019-04-30T22:13:21.355Z,11.42
2019-04-30T22:15:47.587Z,11.42
2019-04-30T22:18:13.795Z,11.42
2019-04-30T22:20:40.350Z,11.47
2019-04-30T22:23:06.618Z,11.58
2019-04-30T22:25:32.926Z,11.63
2019-04-30T22:27:59.137Z,11.46
2019-04-30T22:30:25.641Z,11.54
2019-04-30T22:32:51.869Z,11.38
2019-04-30T22:35:25.849Z,11.41
2019-04-30T22:37:54.188Z,11.42
2019-04-30T22:40:20.496Z,11.38
2019-04-30T22:42:46.732Z,11.33
2019-04-30T22:45:15.443Z,11.03
2019-04-30T22:47:41.771Z,10.92
2019-04-30T22:50:08.122Z,10.66
2019-04-30T22:52:34.363Z,10.63
2019-04-30T22:55:01.681Z,10.52
2019-04-30T22:57:28.119Z,10.56
2019-04-30T22:59:54.251Z,10.63
2019-04-30T23:02:26.026Z,10.63
2019-04-30T23:04:52.943Z,10.68
2019-04-30T23:07:19.183Z,10.63
2019-04-30T23:09:45.381Z,10.31
2019-04-30T23:12:11.963Z,10.22
2019-04-30T23:14:38.251Z,10.02
2019-04-30T23:17:04.797Z,10.13
2019-04-30T23:19:31.172Z,9.99
2019-04-30T23:21:57.389Z,9.93
2019-04-30T23:24:23.587Z,9.31
2019-04-30T23:26:49.925Z,9.09
2019-04-30T23:29:16.035Z,9.17
2019-04-30T23:31:42.256Z,9.30
2019-04-30T23:34:17.833Z,9.56
2019-04-30T23:36:36.704Z,9.47
2019-04-30T23:39:04.659Z,9.52
2019-04-30T23:41:30.871Z,9.63
2019-04-30T23:43:57.101Z,9.54
2019-04-30T23:46:23.233Z,9.21
2019-04-30T23:48:49.349Z,9.27
2019-04-30T23:51:15.682Z,9.31
2019-04-30T23:53:41.793Z,9.42
2019-04-30T23:56:07.898Z,9.13
2019-04-30T23:58:34.113Z,9.03
